createdAt,value
2023-05-04T00:02:12.787Z,102302.53
2023-05-04T00:04:42.877Z,102296.56
2023-05-04T00:07:10.700Z,102295.81
2023-05-04T00:09:38.425Z,102303.91
2023-05-04T00:12:07.018Z,102290.09
2023-05-04T00:14:34.807Z,102286.72
2023-05-04T00:17:06.446Z,102292.00
2023-05-04T00:19:34.211Z,102287.63
2023-05-04T00:22:02.025Z,102285.91
2023-05-04T00:24:29.805Z,102282.31
2023-05-04T00:26:57.435Z,102283.47
2023-05-04T00:29:25.144Z,102279.13
2023-05-04T00:31:52.826Z,102280.91
2023-05-04T00:34:21.874Z,102271.31
2023-05-04T00:36:49.700Z,102273.19
2023-05-04T00:39:17.340Z,102268.97
2023-05-04T00:41:45.935Z,102265.63
2023-05-04T00:44:14.136Z,102262.91
2023-05-04T00:46:42.122Z,102257.88
2023-05-04T00:49:10.084Z,102256.34
2023-05-04T00:51:39.182Z,102253.53
2023-05-04T00:54:06.898Z,102258.06
2023-05-04T00:56:39.075Z,102254.97
2023-05-04T00:59:06.959Z,102239.41
2023-05-04T01:01:34.677Z,102245.34
2023-05-04T01:04:02.885Z,102242.91
2023-05-04T01:06:36.255Z,102242.91
2023-05-04T01:09:10.729Z,102238.47
2023-05-04T01:11:42.422Z,102230.78
2023-05-04T01:14:11.078Z,102234.03
2023-05-04T01:16:38.815Z,102225.34
2023-05-04T01:19:06.562Z,102222.78
2023-05-04T01:21:36.832Z,102224.59
2023-05-04T01:24:04.734Z,102217.50
2023-05-04T01:26:36.702Z,102216.81
2023-05-04T01:29:12.660Z,102218.69
2023-05-04T01:31:40.988Z,102208.22
2023-05-04T01:34:08.933Z,102210.88
2023-05-04T01:36:38.022Z,102209.16
2023-05-04T01:39:05.769Z,102202.34
2023-05-04T01:41:33.502Z,102211.03
2023-05-04T01:44:01.210Z,102210.38
2023-05-04T01:46:29.204Z,102208.66
2023-05-04T01:48:57.019Z,102207.13
2023-05-04T01:51:24.667Z,102203.03
2023-05-04T01:53:53.695Z,102197.75
2023-05-04T01:56:21.741Z,102190.94
2023-05-04T01:58:49.478Z,102202.28
2023-05-04T02:01:17.204Z,102209.34
2023-05-04T02:03:45.557Z,102200.66
2023-05-04T02:06:13.289Z,102194.53
2023-05-04T02:08:41.069Z,102197.25
2023-05-04T02:11:10.128Z,102197.59
2023-05-04T02:13:37.783Z,102200.25
2023-05-04T02:16:06.242Z,102198.59
2023-05-04T02:18:33.950Z,102185.50
2023-05-04T02:21:01.721Z,102189.94
2023-05-04T02:23:29.653Z,102186.44
2023-05-04T02:25:57.309Z,102182.09
2023-05-04T02:28:26.387Z,102189.94
2023-05-04T02:30:54.114Z,102190.97
2023-05-04T02:33:21.839Z,102183.03
2023-05-04T02:35:49.593Z,102177.00
2023-05-04T02:38:17.211Z,102180.53
2023-05-04T02:40:44.877Z,102171.22
2023-05-04T02:43:12.606Z,102179.69
2023-05-04T02:45:41.746Z,102165.22
2023-05-04T02:48:09.514Z,102176.53
2023-05-04T02:50:37.709Z,102176.41
2023-05-04T02:53:05.366Z,102176.41
2023-05-04T02:55:33.052Z,102173.75
2023-05-04T02:58:01.247Z,102155.41
2023-05-04T03:00:28.955Z,102159.00
2023-05-04T03:02:58.018Z,102159.28
2023-05-04T03:05:25.875Z,102156.72
2023-05-04T03:07:53.590Z,102159.19
2023-05-04T03:10:21.948Z,102161.06
2023-05-04T03:12:49.683Z,102157.72
2023-05-04T03:15:17.753Z,102147.25
2023-05-04T03:17:45.517Z,102146.31
2023-05-04T03:20:15.709Z,102150.75
2023-05-04T03:22:43.425Z,102141.81
2023-05-04T03:25:11.255Z,102146.31
2023-05-04T03:27:38.930Z,102146.50
2023-05-04T03:30:08.127Z,102137.78
2023-05-04T03:32:36.200Z,102136.09
2023-05-04T03:35:04.374Z,102137.03
2023-05-04T03:37:33.577Z,102134.41
2023-05-04T03:40:01.283Z,102135.34
2023-05-04T03:42:28.954Z,102137.03
2023-05-04T03:44:56.638Z,102130.25
2023-05-04T03:47:24.412Z,102133.56
2023-05-04T03:49:52.122Z,102132.69
2023-05-04T03:52:19.748Z,102138.16
2023-05-04T03:54:48.803Z,102138.84
2023-05-04T03:57:16.501Z,102129.13
2023-05-04T03:59:44.249Z,102125.63
2023-05-04T04:02:12.012Z,102126.56
2023-05-04T04:04:39.868Z,102126.66
2023-05-04T04:07:07.670Z,102122.31
2023-05-04T04:09:35.415Z,102125.91
2023-05-04T04:12:04.797Z,102119.84
2023-05-04T04:14:32.464Z,102118.16
2023-05-04T04:17:00.122Z,102126.06
2023-05-04T04:19:27.821Z,102116.44
2023-05-04T04:21:55.758Z,102119.09
2023-05-04T04:24:23.469Z,102117.38
2023-05-04T04:26:51.103Z,102127.09
2023-05-04T04:29:20.177Z,102112.94
2023-05-04T04:31:47.804Z,102114.75
2023-05-04T04:34:15.550Z,102108.72
2023-05-04T04:36:43.865Z,102110.41
2023-05-04T04:39:12.131Z,102108.72
2023-05-04T04:41:39.825Z,102111.34
2023-05-04T04:44:07.639Z,102114.00
2023-05-04T04:46:36.868Z,102109.56
2023-05-04T04:49:04.547Z,102110.41
2023-05-04T04:51:32.665Z,102106.81
2023-05-04T04:54:00.305Z,102106.97
2023-05-04T04:56:28.031Z,102105.28
2023-05-04T04:58:55.658Z,102117.53
2023-05-04T05:01:23.502Z,102113.19
2023-05-04T05:03:52.540Z,102105.47
2023-05-04T05:06:20.775Z,102106.22
2023-05-04T05:08:48.525Z,102113.19
2023-05-04T05:11:16.486Z,102109.63
2023-05-04T05:13:44.269Z,102109.56
2023-05-04T05:16:12.028Z,102095.41
2023-05-04T05:18:39.763Z,102091.00
2023-05-04T05:21:09.176Z,102101.22
2023-05-04T05:23:36.764Z,102108.94
2023-05-04T05:26:04.416Z,102099.16
2023-05-04T05:28:32.474Z,102102.56
2023-05-04T05:31:00.235Z,102100.00
2023-05-04T05:33:28.020Z,102106.13
2023-05-04T05:35:55.742Z,102104.94
2023-05-04T05:38:24.887Z,102101.19
2023-05-04T05:40:52.598Z,102102.63
2023-05-04T05:43:20.278Z,102103.41
2023-05-04T05:45:48.713Z,102101.44
2023-05-04T05:48:16.453Z,102103.97
2023-05-04T05:50:44.186Z,102101.19
2023-05-04T05:53:11.866Z,102090.41
2023-05-04T05:55:40.971Z,102084.19
2023-05-04T05:58:08.708Z,102090.25
2023-05-04T06:00:36.360Z,102081.97
2023-05-04T06:03:04.076Z,102082.75
2023-05-04T06:05:32.028Z,102084.09
2023-05-04T06:07:59.827Z,102080.50
2023-05-04T06:10:27.941Z,102078.53
2023-05-04T06:12:57.077Z,102079.38
2023-05-04T06:15:24.835Z,102074.88
2023-05-04T06:17:52.597Z,102083.34
2023-05-04T06:20:20.420Z,102074.47
2023-05-04T06:22:48.042Z,102071.56
2023-05-04T06:25:15.777Z,102061.66
2023-05-04T06:27:43.600Z,102067.53
2023-05-04T06:30:14.033Z,102066.41
2023-05-04T06:32:41.920Z,102068.88
2023-05-04T06:35:10.579Z,102066.88
2023-05-04T06:37:38.278Z,102067.75
2023-05-04T06:40:07.291Z,102071.78
2023-05-04T06:42:35.059Z,102065.66
2023-05-04T06:45:03.176Z,102061.13
2023-05-04T06:47:32.491Z,102064.25
2023-05-04T06:50:00.226Z,102066.28
2023-05-04T06:52:29.658Z,102061.53
2023-05-04T06:54:57.357Z,102064.75
2023-05-04T06:57:25.180Z,102059.09
2023-05-04T06:59:53.687Z,102055.41
2023-05-04T07:02:21.379Z,102054.19
2023-05-04T07:04:50.638Z,102054.91
2023-05-04T07:07:18.311Z,102053.97
2023-05-04T07:09:47.860Z,102050.59
2023-05-04T07:12:15.616Z,102056.25
2023-05-04T07:14:43.328Z,102047.06
2023-05-04T07:17:11.803Z,102049.41
2023-05-04T07:19:39.470Z,102047.13
2023-05-04T07:22:08.503Z,102038.06
2023-05-04T07:24:36.198Z,102047.41
2023-05-04T07:27:03.901Z,102039.91
2023-05-04T07:29:32.198Z,102037.06
2023-05-04T07:31:59.950Z,102029.69
2023-05-04T07:34:41.742Z,102037.31
2023-05-04T07:37:13.944Z,102035.22
2023-05-04T07:39:41.692Z,102029.63
2023-05-04T07:42:11.201Z,102025.81
2023-05-04T07:44:38.879Z,102029.00
2023-05-04T07:47:06.580Z,102024.25
2023-05-04T07:49:34.316Z,102024.78
2023-05-04T07:52:02.005Z,102028.94
2023-05-04T07:54:31.409Z,102028.72
2023-05-04T07:56:59.154Z,102015.09
2023-05-04T07:59:26.942Z,102009.38
2023-05-04T08:01:54.649Z,102009.91
2023-05-04T08:04:22.455Z,102007.81
2023-05-04T08:06:50.892Z,102005.50
2023-05-04T08:09:19.953Z,102006.75
2023-05-04T08:11:50.029Z,101998.41
2023-05-04T08:14:17.759Z,101997.00
2023-05-04T08:16:45.481Z,101997.53
2023-05-04T08:19:13.478Z,101987.44
2023-05-04T08:21:41.517Z,101992.34
2023-05-04T08:24:09.216Z,101982.22
2023-05-04T08:26:38.091Z,101982.75
2023-05-04T08:29:08.466Z,101988.59
2023-05-04T08:31:36.453Z,101984.03
2023-05-04T08:34:04.697Z,101974.13
2023-05-04T08:36:32.441Z,101978.06
2023-05-04T08:39:00.137Z,101978.56
2023-05-04T08:41:27.889Z,101978.03
2023-05-04T08:43:55.612Z,101974.56
2023-05-04T08:46:24.895Z,101977.53
2023-05-04T08:48:52.991Z,101966.34
2023-05-04T08:51:21.170Z,101971.97
2023-05-04T08:53:49.598Z,101966.84
2023-05-04T08:56:17.917Z,101969.66
2023-05-04T08:58:49.924Z,101970.53
2023-05-04T09:01:18.618Z,101968.44
2023-05-04T09:03:48.544Z,101959.63
2023-05-04T09:06:16.435Z,101966.75
2023-05-04T09:08:44.129Z,101963.41
2023-05-04T09:11:11.765Z,101953.75
2023-05-04T09:13:39.479Z,101956.66
2023-05-04T09:16:07.761Z,101952.78
2023-05-04T09:18:39.460Z,101945.06
2023-05-04T09:21:08.892Z,101937.81
2023-05-04T09:23:47.273Z,101932.72
2023-05-04T09:26:15.098Z,101928.88
2023-05-04T09:28:43.382Z,101926.66
2023-05-04T09:31:11.799Z,101925.19
2023-05-04T09:33:39.538Z,101922.53
2023-05-04T09:36:19.294Z,101905.38
2023-05-04T09:38:47.045Z,101914.53
2023-05-04T09:41:14.902Z,101921.78
2023-05-04T09:43:43.841Z,101912.41
2023-05-04T09:46:18.248Z,101918.28
2023-05-04T09:48:53.402Z,101907.94
2023-05-04T09:51:24.841Z,101915.03
2023-05-04T09:53:53.822Z,101917.69
2023-05-04T09:56:28.641Z,101905.78
2023-05-04T09:58:58.739Z,101909.09
2023-05-04T10:01:29.058Z,101906.38
2023-05-04T10:03:56.834Z,101902.22
2023-05-04T10:06:26.418Z,101905.53
2023-05-04T10:08:54.050Z,101895.72
2023-05-04T10:11:21.713Z,101900.78
2023-05-04T10:13:49.893Z,101890.38
2023-05-04T10:16:27.562Z,101894.28
2023-05-04T10:19:17.936Z,101876.63
2023-05-04T10:21:56.942Z,101875.28
2023-05-04T10:24:37.966Z,101870.25
2023-05-04T10:27:08.263Z,101866.22
2023-05-04T10:29:36.153Z,101864.41
2023-05-04T10:32:04.250Z,101858.56
2023-05-04T10:34:33.236Z,101857.03
2023-05-04T10:37:03.403Z,101848.47
2023-05-04T10:39:32.465Z,101839.50
2023-05-04T10:42:01.610Z,101848.84
2023-05-04T10:44:30.122Z,101848.41
2023-05-04T10:46:59.905Z,101830.16
2023-05-04T10:49:27.801Z,101830.44
2023-05-04T10:52:11.248Z,101830.59
2023-05-04T10:54:39.698Z,101830.44
2023-05-04T10:57:09.090Z,101825.25
2023-05-04T10:59:37.277Z,101826.53
2023-05-04T11:02:05.562Z,101806.41
2023-05-04T11:04:33.543Z,101805.13
2023-05-04T11:07:03.133Z,101800.50
2023-05-04T11:09:37.746Z,101805.25
2023-05-04T11:12:05.796Z,101800.72
2023-05-04T11:14:37.545Z,101796.38
2023-05-04T11:17:47.537Z,101788.38
2023-05-04T11:20:22.727Z,101794.13
2023-05-04T11:22:50.724Z,101792.28
2023-05-04T11:25:18.910Z,101787.09
2023-05-04T11:27:50.423Z,101783.53
2023-05-04T11:30:18.244Z,101777.31
2023-05-04T11:32:47.527Z,101770.38
2023-05-04T11:35:16.912Z,101766.50
2023-05-04T11:37:46.240Z,101759.56
2023-05-04T11:40:16.311Z,101770.38
2023-05-04T11:42:44.834Z,101760.38
2023-05-04T11:45:15.656Z,101760.38
2023-05-04T11:47:43.655Z,101751.44
2023-05-04T11:50:13.800Z,101740.34
2023-05-04T11:52:41.814Z,101743.41
2023-05-04T11:55:11.058Z,101741.22
2023-05-04T11:57:39.188Z,101734.66
2023-05-04T12:00:08.377Z,101725.59
2023-05-04T12:02:36.461Z,101724.19
2023-05-04T12:05:05.317Z,101719.09
2023-05-04T12:07:37.862Z,101715.13
2023-05-04T12:10:06.017Z,101705.88
2023-05-04T12:12:37.251Z,101705.66
2023-05-04T12:15:07.720Z,101697.78
2023-05-04T12:17:41.949Z,101697.22
2023-05-04T12:20:10.094Z,101702.19
2023-05-04T12:22:39.581Z,101694.53
2023-05-04T12:25:09.303Z,101692.59
2023-05-04T12:27:41.542Z,101698.25
2023-05-04T12:30:11.077Z,101689.56
2023-05-04T12:32:39.080Z,101696.81
2023-05-04T12:35:07.981Z,101696.66
2023-05-04T12:37:35.857Z,101688.28
2023-05-04T12:40:11.268Z,101682.94
2023-05-04T12:42:45.591Z,101674.88
2023-05-04T12:45:14.054Z,101677.91
2023-05-04T12:47:42.332Z,101679.56
2023-05-04T12:50:10.990Z,101659.47
2023-05-04T12:52:39.905Z,101654.94
2023-05-04T12:55:09.676Z,101659.84
2023-05-04T12:57:37.860Z,101658.00
2023-05-04T13:00:09.793Z,101654.31
2023-05-04T13:02:37.606Z,101650.47
2023-05-04T13:05:05.904Z,101652.16
2023-05-04T13:07:33.777Z,101643.78
2023-05-04T13:10:01.853Z,101644.13
2023-05-04T13:12:31.014Z,101628.22
2023-05-04T13:14:59.510Z,101633.72
2023-05-04T13:17:29.572Z,101632.38
2023-05-04T13:19:57.285Z,101623.66
2023-05-04T13:22:24.909Z,101615.94
2023-05-04T13:24:52.497Z,101625.66
2023-05-04T13:27:20.191Z,101613.13
2023-05-04T13:29:49.229Z,101610.59
2023-05-04T13:32:16.945Z,101608.28
2023-05-04T13:34:44.918Z,101591.81
2023-05-04T13:37:18.156Z,101589.84
2023-05-04T13:39:46.213Z,101596.38
2023-05-04T13:42:14.127Z,101588.44
2023-05-04T13:44:45.301Z,101581.41
2023-05-04T13:47:14.406Z,101586.13
2023-05-04T13:49:42.072Z,101585.78
2023-05-04T13:52:10.018Z,101574.06
2023-05-04T13:54:37.968Z,101581.25
2023-05-04T13:57:05.872Z,101582.41
2023-05-04T14:00:19.315Z,101575.53
2023-05-04T14:02:47.289Z,101564.97
2023-05-04T14:05:15.158Z,101565.97
2023-05-04T14:07:42.837Z,101559.56
2023-05-04T14:10:11.521Z,101562.25
2023-05-04T14:12:39.227Z,101559.41
2023-05-04T14:16:19.573Z,101548.47
2023-05-04T14:18:47.740Z,101555.00
2023-05-04T14:21:15.626Z,101551.13
2023-05-04T14:23:44.726Z,101536.69
2023-05-04T14:26:12.365Z,101536.69
2023-05-04T14:28:40.104Z,101540.38
2023-05-04T14:31:08.900Z,101529.81
2023-05-04T14:33:38.004Z,101535.56
2023-05-04T14:36:06.154Z,101533.03
2023-05-04T14:38:35.250Z,101529.03
2023-05-04T14:41:03.031Z,101518.63
2023-05-04T14:43:30.719Z,101519.28
2023-05-04T14:46:00.177Z,101507.34
2023-05-04T14:48:28.634Z,101512.69
2023-05-04T15:09:16.084Z,101471.28
2023-05-04T15:11:43.774Z,101467.56
2023-05-04T15:14:11.490Z,101468.88
2023-05-04T15:16:39.342Z,101460.50
2023-05-04T15:19:07.794Z,101469.25
2023-05-04T15:21:36.019Z,101460.34
2023-05-04T15:24:03.708Z,101454.47
2023-05-04T15:26:34.453Z,101453.97
2023-05-04T15:29:02.185Z,101442.00
2023-05-04T15:31:29.928Z,101449.56
2023-05-04T15:33:57.540Z,101443.00
2023-05-04T15:36:25.435Z,101440.97
2023-05-04T15:38:53.135Z,101436.78
2023-05-04T15:42:17.337Z,101435.06
2023-05-04T15:44:45.675Z,101431.19
2023-05-04T15:47:13.404Z,101430.53
2023-05-04T15:49:41.172Z,101427.38
2023-05-04T15:52:10.454Z,101412.41
2023-05-04T15:54:38.127Z,101414.81
2023-05-04T15:57:06.185Z,101413.00
2023-05-04T15:59:35.323Z,101411.19
2023-05-04T16:02:05.922Z,101411.53
2023-05-04T16:04:33.594Z,101412.56
2023-05-04T16:07:01.401Z,101412.56
2023-05-04T16:09:30.541Z,101415.22
2023-05-04T16:11:58.329Z,101419.94
2023-05-04T16:14:26.085Z,101414.25
2023-05-04T16:16:55.419Z,101413.59
2023-05-04T16:19:23.145Z,101413.94
2023-05-04T16:21:50.822Z,101412.25
2023-05-04T16:24:18.527Z,101411.59
2023-05-04T16:26:49.753Z,101408.28
2023-05-04T16:29:17.466Z,101418.00
2023-05-04T16:31:47.615Z,101419.84
2023-05-04T16:34:16.620Z,101412.81
2023-05-04T16:36:44.748Z,101412.28
2023-05-04T16:39:13.592Z,101405.63
2023-05-04T16:41:41.296Z,101398.91
2023-05-04T16:44:08.983Z,101396.03
2023-05-04T16:46:36.734Z,101389.84
2023-05-04T16:49:15.537Z,101393.53
2023-05-04T16:51:43.494Z,101390.38
2023-05-04T16:54:11.331Z,101390.53
2023-05-04T16:56:39.214Z,101378.47
2023-05-04T16:59:06.873Z,101376.66
2023-05-04T17:01:35.105Z,101368.59
2023-05-04T17:04:02.944Z,101367.09
2023-05-04T17:06:32.232Z,101359.34
2023-05-04T17:08:59.913Z,101362.22
2023-05-04T17:11:27.639Z,101356.03
2023-05-04T17:13:55.972Z,101359.53
2023-05-04T17:16:23.704Z,101356.69
2023-05-04T17:18:51.454Z,101351.31
2023-05-04T17:21:19.870Z,101355.84
2023-05-04T17:23:48.924Z,101361.03
2023-05-04T17:26:16.550Z,101366.75
2023-05-04T17:28:44.305Z,101357.03
2023-05-04T17:31:12.607Z,101355.50
2023-05-04T17:33:40.448Z,101360.03
2023-05-04T17:36:11.106Z,101354.84
2023-05-04T17:38:38.824Z,101354.03
2023-05-04T17:41:09.687Z,101355.03
2023-05-04T17:43:37.720Z,101359.75
2023-05-04T17:46:05.642Z,101353.03
2023-05-04T17:48:33.327Z,101362.94
2023-05-04T17:51:00.994Z,101366.13
2023-05-04T17:53:28.729Z,101361.94
2023-05-04T17:55:56.449Z,101359.44
2023-05-04T17:58:25.954Z,101364.31
2023-05-04T18:00:53.976Z,101364.31
2023-05-04T18:03:21.731Z,101361.78
2023-05-04T18:05:49.496Z,101361.13
2023-05-04T18:08:17.196Z,101363.78
2023-05-04T18:10:44.860Z,101365.47
2023-05-04T18:13:12.568Z,101358.44
2023-05-04T18:15:41.612Z,101367.50
2023-05-04T18:18:10.824Z,101368.69
2023-05-04T18:20:38.623Z,101367.84
2023-05-04T18:23:06.288Z,101370.00
2023-05-04T18:25:34.023Z,101371.84
2023-05-04T18:28:01.697Z,101377.56
2023-05-04T18:30:29.675Z,101370.69
2023-05-04T18:32:58.764Z,101373.72
2023-05-04T18:35:26.441Z,101375.88
2023-05-04T18:37:54.104Z,101377.91
2023-05-04T18:40:23.880Z,101375.56
2023-05-04T18:42:51.686Z,101367.19
2023-05-04T18:45:19.350Z,101373.72
2023-05-04T18:47:47.039Z,101373.22
2023-05-04T18:50:16.275Z,101373.72
2023-05-04T18:52:43.957Z,101382.09
2023-05-04T18:55:11.662Z,101381.56
2023-05-04T18:57:39.332Z,101378.22
2023-05-04T19:00:08.972Z,101380.38
2023-05-04T19:02:37.771Z,101381.56
2023-05-04T19:05:05.977Z,101393.59
2023-05-04T19:07:35.007Z,101397.63
2023-05-04T19:10:02.810Z,101393.41
2023-05-04T19:12:30.614Z,101395.59
2023-05-04T19:14:59.070Z,101388.88
2023-05-04T19:17:27.329Z,101390.06
2023-05-04T19:19:54.942Z,101388.56
2023-05-04T19:22:22.629Z,101379.16
2023-05-04T19:24:52.473Z,101385.53
2023-05-04T19:27:20.086Z,101379.50
2023-05-04T19:29:47.702Z,101387.34
2023-05-04T19:32:23.323Z,101389.38
2023-05-04T19:34:51.804Z,101391.69
2023-05-04T19:37:19.499Z,101391.84
2023-05-04T19:39:47.423Z,101394.69
2023-05-04T19:42:16.479Z,101389.81
2023-05-04T19:44:44.187Z,101391.00
2023-05-04T19:47:12.654Z,101399.16
2023-05-04T19:49:40.310Z,101390.78
2023-05-04T19:52:07.976Z,101380.72
2023-05-04T19:54:38.056Z,101383.75
2023-05-04T19:57:05.744Z,101388.41
2023-05-04T19:59:35.483Z,101391.41
2023-05-04T20:02:03.780Z,101394.53
2023-05-04T20:04:31.418Z,101387.66
2023-05-04T20:06:59.071Z,101382.66
2023-05-04T20:09:26.673Z,101386.63
2023-05-04T20:11:54.302Z,101382.44
2023-05-04T20:14:21.893Z,101385.28
2023-05-04T20:16:53.344Z,101384.91
2023-05-04T20:19:21.037Z,101379.19
2023-05-04T20:21:49.010Z,101388.38
2023-05-04T20:24:17.228Z,101383.19
2023-05-04T20:26:44.911Z,101382.00
2023-05-04T20:29:12.656Z,101375.13
2023-05-04T20:31:41.033Z,101371.75
2023-05-04T20:34:10.189Z,101373.75
2023-05-04T20:36:38.190Z,101375.09
2023-05-04T20:39:06.810Z,101367.38
2023-05-04T20:41:34.595Z,101373.88
2023-05-04T20:44:02.299Z,101361.66
2023-05-04T20:46:29.962Z,101363.81
2023-05-04T20:48:59.297Z,101362.28
2023-05-04T20:51:28.334Z,101353.56
2023-05-04T20:53:56.068Z,101353.91
2023-05-04T20:56:23.787Z,101358.56
2023-05-04T20:58:51.646Z,101359.56
2023-05-04T21:01:19.367Z,101350.19
2023-05-04T21:03:47.192Z,101347.00
2023-05-04T21:06:14.963Z,101352.19
2023-05-04T21:08:44.068Z,101346.16
2023-05-04T21:11:11.721Z,101350.50
2023-05-04T21:13:39.317Z,101344.63
2023-05-04T21:16:07.794Z,101346.44
2023-05-04T21:18:36.031Z,101335.41
2023-05-04T21:21:04.112Z,101340.03
2023-05-04T21:23:32.006Z,101343.03
2023-05-04T21:26:04.397Z,101336.28
2023-05-04T21:28:32.582Z,101334.63
2023-05-04T21:31:00.692Z,101334.94
2023-05-04T21:33:28.504Z,101331.88
2023-05-04T21:35:56.187Z,101325.47
2023-05-04T21:38:23.780Z,101318.47
2023-05-04T21:40:51.450Z,101318.78
2023-05-04T21:43:20.506Z,101310.38
2023-05-04T21:45:48.181Z,101315.91
2023-05-04T21:48:15.880Z,101316.06
2023-05-04T21:50:43.553Z,101305.16
2023-05-04T21:53:11.237Z,101307.66
2023-05-04T21:55:38.859Z,101305.31
2023-05-04T21:58:06.509Z,101304.59
2023-05-04T22:00:35.621Z,101304.91
2023-05-04T22:03:03.411Z,101303.75
2023-05-04T22:05:31.175Z,101289.88
2023-05-04T22:08:00.801Z,101297.22
2023-05-04T22:10:28.508Z,101295.69
2023-05-04T22:12:56.235Z,101293.00
2023-05-04T22:15:27.533Z,101288.16
2023-05-04T22:18:00.818Z,101284.78
2023-05-04T22:20:28.604Z,101290.44
2023-05-04T22:22:56.576Z,101280.75
2023-05-04T22:25:24.261Z,101283.72
2023-05-04T22:27:51.973Z,101283.19
2023-05-04T22:30:21.409Z,101285.03
2023-05-04T22:32:49.140Z,101282.63
2023-05-04T22:35:18.427Z,101280.97
2023-05-04T22:37:47.991Z,101281.97
2023-05-04T22:40:15.830Z,101274.28
2023-05-04T22:42:44.780Z,101273.44
2023-05-04T22:45:13.962Z,101278.94
2023-05-04T22:47:42.143Z,101274.56
2023-05-04T22:50:10.861Z,101272.88
2023-05-04T22:52:40.245Z,101269.69
2023-05-04T22:55:09.212Z,101262.97
2023-05-04T22:57:36.947Z,101266.47
2023-05-04T23:00:07.677Z,101264.81
2023-05-04T23:02:35.838Z,101265.47
2023-05-04T23:05:03.894Z,101266.47
2023-05-04T23:07:31.599Z,101265.63
2023-05-04T23:10:00.776Z,101262.81
2023-05-04T23:12:28.780Z,101263.13
2023-05-04T23:14:56.435Z,101262.44
2023-05-04T23:17:24.148Z,101267.78
2023-05-04T23:19:51.971Z,101268.78
2023-05-04T23:22:20.102Z,101267.09
2023-05-04T23:24:47.767Z,101258.69
2023-05-04T23:27:16.841Z,101265.84
2023-05-04T23:29:44.537Z,101264.28
2023-05-04T23:32:12.270Z,101262.63
2023-05-04T23:34:39.955Z,101262.63
2023-05-04T23:37:07.611Z,101261.63
2023-05-04T23:39:35.696Z,101257.44
2023-05-04T23:42:03.369Z,101260.13
2023-05-04T23:44:32.933Z,101255.09
2023-05-04T23:47:00.580Z,101250.59
2023-05-04T23:49:28.212Z,101250.88
2023-05-04T23:51:56.409Z,101249.19
2023-05-04T23:54:24.355Z,101252.72
2023-05-04T23:56:52.047Z,101243.72
2023-05-04T23:59:19.748Z,101242.88
